Impacts TAF Board INFO
FOR SITUATIONAL AWARENESS. NOT TO BE USED FOR FLIGHT PLANNING PURPOSES.
IDs:

KMSP - Minneapolis-St Paul, MN, US

Issued at 1937 UTC 23 Mar 2017
Updated at 2008 UTC 23 Mar 2017
Potential Impact None Slight Moderate High
Time1953Z 23/21Z 23/22Z 23/23Z 24/00Z 24/01Z 24/02Z 24/03Z 24/04Z 24/05Z 24/06Z 24/07Z 24/08Z 24/09Z
Type OBS PRVL PRVL PRVL PRVL PRVL PRVL PRVL PRVL PRVL PRVL PRVL PRVL PRVL
VIS 10 >6 >6 >6 >6 >6 >6 >6 >6 2 2 2 2 3
CIG 25 15 15 15 15 10 10 10 10 8 8 8 8 8
Cover OVC OVC OVC OVC OVC OVC OVC OVC OVC OVC OVC OVC OVC OVC
FltCat MVFR MVFR MVFR MVFR MVFR MVFR MVFR MVFR MVFR IFR IFR IFR IFR IFR
WX -- VCSH VCSH VCSH VCSH VCSH VCSH VCSH VCSH SHRA BR SHRA BR SHRA BR SHRA BR -RA BR
WDir 150 140 140 140 140 130 130 130 130 90 90 90 90 40
WSpd 13 11 11 11 11 6 6 6 6 4 4 4 4 5
WGst -- -- -- -- -- -- -- -- -- -- -- -- -- --

Raw TAF
KMSP 231937Z 2320/2424 15013G19KT P6SM OVC030
  FM232100 14011KT P6SM VCSH OVC015
  FM240100 13006KT P6SM VCSH OVC010
  FM240500 09004KT 2SM SHRA BR OVC008
  FM240900 04005KT 3SM -RA BR OVC008
  FM241200 36010KT 4SM -SHRA BR OVC008
  FM241800 01012KT 4SM BR VCSH OVC012


Raw METAR
KMSP 231953Z 15013KT 10SM OVC025 04/M02 A2995 RMK AO2 RAB27E36 SLP148 P0000 T00391022
KMSP 231931Z 15017G20KT 10SM -RA OVC029 04/M02 A2996 RMK AO2 RAB27 P0000 T00391022
KMSP 231853Z 15014KT 10SM OVC031 04/M03 A2996 RMK AO2 PRESFR SLP153 T00391028
KMSP 231827Z 15014G19KT 10SM OVC030 04/M03 A3001 RMK AO2 T00391033
KMSP 231753Z 16016G23KT 10SM BKN029 OVC036 04/M04 A3004 RMK AO2 SLP179 T00391044 10044 20028 56019

METAR Board
Radar Display
Forecast Discussion

FOR SITUATIONAL AWARENESS. NOT TO BE USED FOR FLIGHT PLANNING PURPOSES.

Page loaded:  20:08 UTC  |   01:08 PM Pacific  |   02:08 PM Mountain  |   03:08 PM Central  |   04:08 PM Eastern

 

ADVISORIES

FORECASTS

FORECASTS

OBSERVATIONS

USER TOOLS

ABOUT US